»·PEaware :: N4306H KSNA-KCRQ

N4306H :: KSNA-KCRQ

FLIGHT INFORMATION

Flight Status: Arrived
Operator: Privately registered:
United States
More flights under this callsign
Pilot: Lauro R. (32390)
Aircraft: MOONEY M-20 201 202 205 220 ATS MSE
(M20P)
More flights by this aircraft type
Origin: KSNA John Wayne-Orange Co
United States
Destination: KCRQ McClellan-Palomar
United States
More flights between these airports :: More routes between these airports
Route: +V23 OCN
File this flight plan on PilotEdge
Remarks:
Altitude:
(Current/Filed)
5,000ft
Speed:
(Current/Filed)
150kts
Departed: 11-Nov-20 06:38 PM
Arrived: 11-Nov-20 07:08 PM
Distance/Time
Traveled:
0nm/0:30
Distance/Time
To Go:
Arrived

Flight Plot

Page will automatically refresh every two minutes.


Map Options




Map Legend


Flown Route
Filed Route
Departure Airport
Arrival Airport
Navaid (VOR, NDB)
Fix

Horizontal Profiles

Position Reports

Time Latitude Longitude Heading Altitude Ground
Speed
11-Nov-20 18:19 33.666390 -117.873174 207 59ft 0kts
11-Nov-20 18:19 33.666390 -117.873174 207 59ft 0kts
11-Nov-20 18:22 33.671192 -117.868025 211 59ft 0kts
11-Nov-20 18:22 33.671192 -117.868025 211 59ft 0kts
11-Nov-20 18:26 33.671192 -117.868025 211 59ft 0kts
11-Nov-20 18:26 33.671192 -117.868025 211 59ft 0kts
11-Nov-20 18:27 33.671192 -117.868025 211 59ft 0kts
11-Nov-20 18:28 33.671192 -117.868025 211 59ft 0kts
11-Nov-20 18:29 33.671192 -117.868025 211 59ft 0kts
11-Nov-20 18:30 33.671192 -117.868025 211 59ft 0kts
11-Nov-20 18:31 33.671192 -117.868025 211 59ft 0kts
11-Nov-20 18:32 33.671192 -117.868025 211 59ft 0kts
11-Nov-20 18:33 33.672142 -117.868106 27 59ft 20kts
11-Nov-20 18:34 33.677045 -117.865189 296 59ft 14kts
11-Nov-20 18:35 33.679963 -117.863679 296 59ft 0kts
11-Nov-20 18:36 33.679963 -117.863679 296 59ft 0kts
11-Nov-20 18:37 33.668832 -117.871467 212 324ft 86kts
11-Nov-20 18:38 33.646946 -117.879205 194 1313ft 86kts
11-Nov-20 18:39 33.617911 -117.884069 187 1968ft 120kts
11-Nov-20 18:40 33.585709 -117.877677 113 2580ft 134kts
11-Nov-20 18:41 33.570309 -117.835587 113 3189ft 140kts
11-Nov-20 18:42 33.554123 -117.792674 117 3792ft 141kts
11-Nov-20 18:43 33.530926 -117.755197 139 4314ft 144kts
11-Nov-20 18:44 33.502810 -117.722101 135 4907ft 140kts
11-Nov-20 18:45 33.472254 -117.686489 136 4976ft 165kts
11-Nov-20 18:46 33.437523 -117.646121 136 4976ft 184kts
11-Nov-20 18:47 33.399548 -117.602004 136 4972ft 193kts
11-Nov-20 18:48 33.360608 -117.556801 135 4972ft 195kts
11-Nov-20 18:49 33.321338 -117.511275 136 4972ft 196kts
11-Nov-20 18:50 33.282059 -117.465797 135 4971ft 196kts
11-Nov-20 18:51 33.247886 -117.416683 91 4960ft 196kts
11-Nov-20 18:52 33.253670 -117.351866 83 4972ft 196kts
11-Nov-20 18:53 33.259928 -117.286808 83 4972ft 198kts
11-Nov-20 18:54 33.266258 -117.221182 83 4971ft 199kts
11-Nov-20 18:55 33.269844 -117.155238 111 4998ft 198kts
11-Nov-20 18:56 33.257111 -117.090834 102 4972ft 199kts
11-Nov-20 18:57 33.237259 -117.032708 164 4884ft 193kts
11-Nov-20 18:58 33.190692 -117.019016 209 4067ft 161kts
11-Nov-20 18:59 33.163189 -117.054348 269 3577ft 128kts
11-Nov-20 19:00 33.158762 -117.090580 259 3531ft 99kts
11-Nov-20 19:01 33.153491 -117.123588 259 3015ft 103kts
11-Nov-20 19:02 33.147997 -117.157834 259 2417ft 106kts
11-Nov-20 19:03 33.142365 -117.192792 259 1791ft 105kts
11-Nov-20 19:04 33.137021 -117.225892 259 1200ft 96kts
11-Nov-20 19:05 33.132374 -117.254619 259 696ft 77kts
11-Nov-20 19:06 33.128894 -117.276044 259 334ft 50kts
11-Nov-20 19:07 33.127101 -117.279818 93 334ft 12kts
11-Nov-20 19:08 33.126949 -117.279180 178 334ft 0kts
11-Nov-20 19:09 33.126949 -117.279180 178 334ft 0kts
11-Nov-20 19:10 33.126949 -117.279180 178 334ft 0kts
11-Nov-20 19:11 33.126949 -117.279180 178 334ft 0kts
11-Nov-20 19:12 33.126949 -117.279180 178 334ft 0kts
11-Nov-20 19:13 33.126949 -117.279180 178 334ft 0kts
11-Nov-20 19:14 33.126949 -117.279180 178 334ft 0kts
11-Nov-20 19:15 33.126949 -117.279180 178 334ft 0kts
11-Nov-20 19:16 33.126949 -117.279180 178 334ft 0kts
11-Nov-20 19:17 33.126949 -117.279180 178 334ft 0kts
11-Nov-20 19:18 33.126949 -117.279180 178 334ft 0kts
11-Nov-20 19:19 33.671192 -117.868025 211 59ft 0kts
11-Nov-20 19:20 33.671192 -117.868025 211 59ft 0kts
11-Nov-20 19:21 33.671192 -117.868025 211 59ft 0kts

Navigation Log

Ident Type
Flight plan parsing failed, navigation log unavailable